Time;durP1;ratioP1;P1;durP2;ratioP2;P2;SDS_P1;SDS_P2;PMS_P1;PMS_P2;Temp;Humidity;BMP_temperature;BMP_pressure;BME280_temperature;BME280_humidity;BME280_pressure;Samples;Min_cycle;Max_cycle;Signal;HPM_P1;HPM_P2
2022/11/10 00:01:50;;;;;;;35.80;4.60;;;;;;;10.19;100.00;101558.25;5032794;28;20044;-36
2022/11/10 00:04:15;;;;;;;23.02;4.30;;;;;;;10.20;100.00;101554.53;5048869;28;20043;-37
2022/11/10 00:06:41;;;;;;;30.30;4.53;;;;;;;10.18;100.00;101556.53;5059515;28;20033;-37
2022/11/10 00:09:06;;;;;;;30.95;3.15;;;;;;;10.16;100.00;101555.00;5049845;28;20024;-37
2022/11/10 00:11:32;;;;;;;27.00;3.20;;;;;;;10.15;100.00;101561.41;5044256;28;20139;-37
2022/11/10 00:16:59;;;;;;;36.50;4.45;;;;;;;10.11;100.00;101560.91;5038729;28;20056;-37
2022/11/10 00:19:28;;;;;;;30.58;4.47;;;;;;;10.13;100.00;101575.00;5043940;28;20025;-37
2022/11/10 00:21:54;;;;;;;31.42;3.72;;;;;;;10.14;100.00;101571.34;5037500;28;20045;-36
2022/11/10 00:24:19;;;;;;;17.90;2.80;;;;;;;10.14;100.00;101565.94;5045037;28;20044;-37
2022/11/10 00:26:45;;;;;;;19.27;2.55;;;;;;;10.17;100.00;101576.38;5034431;28;20029;-37
2022/11/10 00:29:10;;;;;;;21.90;3.08;;;;;;;10.21;100.00;101582.28;5041868;28;20029;-37
2022/11/10 00:31:39;;;;;;;37.83;3.50;;;;;;;10.23;100.00;101580.28;5054162;28;20651;-39
2022/11/10 00:34:05;;;;;;;26.70;3.38;;;;;;;10.25;100.00;101579.09;5047920;28;20021;-37
2022/11/10 00:36:30;;;;;;;19.80;2.70;;;;;;;10.23;100.00;101578.41;5053502;28;20025;-40
2022/11/10 00:38:57;;;;;;;35.67;3.13;;;;;;;10.24;100.00;101574.75;5038250;28;20032;-38
2022/11/10 00:41:22;;;;;;;31.80;2.78;;;;;;;10.27;100.00;101578.97;5052380;28;20044;-37
2022/11/10 00:43:49;;;;;;;45.20;4.20;;;;;;;10.25;100.00;101587.19;5048058;28;20024;-37
2022/11/10 00:46:15;;;;;;;31.23;3.53;;;;;;;10.27;100.00;101587.03;5037882;28;20075;-38
2022/11/10 00:48:40;;;;;;;34.40;3.17;;;;;;;10.29;100.00;101593.97;5032592;28;20033;-39
2022/11/10 00:51:06;;;;;;;24.30;3.47;;;;;;;10.29;100.00;101598.47;5041026;28;20026;-37
2022/11/10 00:53:31;;;;;;;39.65;3.38;;;;;;;10.27;100.00;101604.03;5031366;28;20525;-36
2022/11/10 00:55:57;;;;;;;29.15;3.55;;;;;;;10.27;100.00;101592.41;5041447;28;20116;-37
2022/11/10 00:58:22;;;;;;;27.52;3.03;;;;;;;10.27;100.00;101595.09;5050354;28;20123;-36
2022/11/10 01:00:48;;;;;;;21.38;3.40;;;;;;;10.27;100.00;101592.41;5035503;28;20357;-38
2022/11/10 01:03:14;;;;;;;31.27;3.55;;;;;;;10.30;100.00;101595.63;5045466;28;20061;-37
2022/11/10 01:05:40;;;;;;;31.20;3.65;;;;;;;10.29;100.00;101588.59;5044623;28;20032;-38
2022/11/10 01:08:05;;;;;;;30.40;3.53;;;;;;;10.32;100.00;101607.09;5044639;28;20088;-37
2022/11/10 01:10:31;;;;;;;35.63;4.03;;;;;;;10.34;100.00;101593.47;5049488;28;20036;-37
2022/11/10 01:12:56;;;;;;;33.50;3.55;;;;;;;10.35;100.00;101594.28;5046397;28;20272;-37
2022/11/10 01:15:21;;;;;;;27.08;3.55;;;;;;;10.33;100.00;101600.69;5041224;28;20537;-36
2022/11/10 01:17:47;;;;;;;33.50;3.80;;;;;;;10.31;100.00;101594.63;5044939;28;20030;-37
2022/11/10 01:20:13;;;;;;;30.83;3.65;;;;;;;10.31;100.00;101601.84;5033584;28;20044;-37
2022/11/10 01:22:39;;;;;;;32.35;3.83;;;;;;;10.33;100.00;101599.84;5048160;28;20051;-37
2022/11/10 01:25:05;;;;;;;39.38;3.88;;;;;;;10.33;100.00;101598.00;5044176;28;20032;-37
2022/11/10 01:27:31;;;;;;;26.52;3.70;;;;;;;10.35;100.00;101599.66;5048369;28;20056;-36
2022/11/10 01:29:56;;;;;;;27.38;3.45;;;;;;;10.36;100.00;101609.44;5048183;28;20021;-36
2022/11/10 01:32:21;;;;;;;28.50;3.13;;;;;;;10.35;100.00;101607.75;5031370;28;20114;-37
2022/11/10 01:34:47;;;;;;;36.72;3.55;;;;;;;10.37;100.00;101608.44;5032143;28;20103;-36
2022/11/10 01:37:12;;;;;;;35.83;3.10;;;;;;;10.36;100.00;101607.59;5039962;28;20043;-36
2022/11/10 01:39:38;;;;;;;35.75;3.53;;;;;;;10.37;100.00;101614.66;5045527;28;20032;-36
2022/11/10 01:42:04;;;;;;;40.13;4.05;;;;;;;10.39;100.00;101611.81;5046314;28;20127;-36
2022/11/10 01:44:29;;;;;;;39.78;3.67;;;;;;;10.39;100.00;101609.97;5036152;28;20034;-37
2022/11/10 01:46:55;;;;;;;42.00;3.58;;;;;;;10.41;100.00;101620.56;5041423;28;20029;-37
2022/11/10 01:49:23;;;;;;;35.50;4.25;;;;;;;10.42;100.00;101622.25;5045508;28;20040;-37
2022/11/10 01:52:06;;;;;;;38.78;4.28;;;;;;;10.41;100.00;101629.47;5050781;28;20446;-37
2022/11/10 01:54:35;;;;;;;30.30;3.58;;;;;;;10.41;100.00;101626.78;5040549;28;20032;-36
2022/11/10 01:57:06;;;;;;;33.67;3.58;;;;;;;10.42;100.00;101635.69;5039640;28;20187;-37
2022/11/10 01:59:36;;;;;;;32.72;3.72;;;;;;;10.41;100.00;101634.88;5045394;28;20134;-37
2022/11/10 02:02:10;;;;;;;25.83;3.35;;;;;;;10.42;100.00;101639.22;5038788;28;20479;-37
2022/11/10 02:04:35;;;;;;;35.47;3.50;;;;;;;10.43;100.00;101648.19;5019324;28;20029;-36
2022/11/10 02:07:01;;;;;;;44.15;3.63;;;;;;;10.42;100.00;101638.41;5042887;28;20364;-37
2022/11/10 02:09:26;;;;;;;38.70;4.47;;;;;;;10.42;100.00;101644.63;5042837;28;20029;-37
2022/11/10 02:11:53;;;;;;;34.42;3.60;;;;;;;10.38;100.00;101647.81;5046947;28;20126;-37
2022/11/10 02:14:18;;;;;;;34.70;3.67;;;;;;;10.36;100.00;101650.66;5034105;28;20064;-38
2022/11/10 02:16:43;;;;;;;25.88;2.83;;;;;;;10.35;100.00;101648.97;5043724;28;20057;-36
2022/11/10 02:19:27;;;;;;;41.58;3.83;;;;;;;10.31;100.00;101663.75;5041526;28;20116;-36
2022/11/10 02:21:52;;;;;;;36.67;4.35;;;;;;;10.30;100.00;101664.75;5034692;28;20039;-37
2022/11/10 02:24:18;;;;;;;25.95;2.72;;;;;;;10.29;100.00;101666.59;5034106;28;20037;-37
2022/11/10 02:26:53;;;;;;;40.72;3.47;;;;;;;10.25;100.00;101669.75;5049398;28;20029;-38
2022/11/10 02:29:19;;;;;;;27.10;3.38;;;;;;;10.20;100.00;101674.75;5042428;28;20451;-39
2022/11/10 02:31:45;;;;;;;25.52;3.35;;;;;;;10.17;100.00;101683.97;5040952;28;20029;-37
2022/11/10 02:34:11;;;;;;;29.80;3.67;;;;;;;10.16;100.00;101674.19;5030673;28;20037;-36
2022/11/10 02:36:36;;;;;;;40.42;4.50;;;;;;;10.15;100.00;101685.97;5040334;28;20637;-37
2022/11/10 02:39:02;;;;;;;40.63;3.05;;;;;;;10.15;100.00;101688.66;5045067;28;20507;-37
2022/11/10 02:41:27;;;;;;;38.78;3.33;;;;;;;10.10;100.00;101689.13;5040547;28;20043;-37
2022/11/10 02:43:53;;;;;;;38.80;4.10;;;;;;;10.11;100.00;101684.63;5048434;28;20102;-37
2022/11/10 02:46:19;;;;;;;50.08;3.83;;;;;;;10.08;100.00;101690.28;5037197;28;20021;-37
2022/11/10 02:48:44;;;;;;;39.00;3.35;;;;;;;10.04;100.00;101692.47;5030894;28;20132;-37
2022/11/10 02:51:09;;;;;;;32.92;2.95;;;;;;;10.03;100.00;101692.63;5032993;28;20459;-38
2022/11/10 02:53:35;;;;;;;38.85;3.47;;;;;;;10.01;100.00;101705.41;5031364;28;20731;-37
2022/11/10 02:56:00;;;;;;;41.10;4.03;;;;;;;9.98;100.00;101705.69;5030733;28;20053;-36
2022/11/10 02:58:25;;;;;;;41.17;3.35;;;;;;;9.93;100.00;101705.34;5037533;28;20037;-37
2022/11/10 03:00:51;;;;;;;28.60;3.03;;;;;;;9.89;100.00;101708.31;5045847;28;20029;-38
2022/11/10 03:03:16;;;;;;;32.33;3.58;;;;;;;9.86;100.00;101710.47;5029147;28;20124;-36
2022/11/10 03:05:41;;;;;;;31.60;3.65;;;;;;;9.83;100.00;101718.88;5030013;28;20422;-38
2022/11/10 03:08:07;;;;;;;24.65;3.45;;;;;;;9.78;100.00;101713.94;5036146;28;20033;-36
2022/11/10 03:10:32;;;;;;;33.80;3.70;;;;;;;9.77;100.00;101709.59;5043088;28;20121;-36
2022/11/10 03:12:59;;;;;;;30.98;2.78;;;;;;;9.76;100.00;101718.63;5041291;28;20073;-36
2022/11/10 03:15:25;;;;;;;32.50;3.80;;;;;;;9.75;100.00;101727.69;5033565;28;20127;-37
2022/11/10 03:17:51;;;;;;;35.80;3.20;;;;;;;9.73;100.00;101727.00;5045429;28;20597;-37
2022/11/10 03:20:17;;;;;;;33.03;2.72;;;;;;;9.72;100.00;101728.00;5041260;28;20028;-37
2022/11/10 03:22:42;;;;;;;34.72;4.30;;;;;;;9.77;100.00;101730.22;5040757;28;20164;-36
2022/11/10 03:25:08;;;;;;;36.83;3.03;;;;;;;9.82;100.00;101731.47;5030703;28;20105;-35
2022/11/10 03:27:35;;;;;;;28.42;3.33;;;;;;;9.93;100.00;101730.38;5030696;28;20112;-37
2022/11/10 03:30:01;;;;;;;31.83;3.35;;;;;;;9.98;100.00;101736.13;5047504;28;20030;-37
2022/11/10 03:32:26;;;;;;;28.02;2.55;;;;;;;10.06;100.00;101729.97;5041212;28;20027;-38
2022/11/10 03:34:52;;;;;;;26.42;3.25;;;;;;;10.11;100.00;101723.13;5047411;28;20459;-37
2022/11/10 03:37:17;;;;;;;34.30;4.50;;;;;;;10.16;100.00;101725.31;5046731;28;20021;-37
2022/11/10 03:39:42;;;;;;;28.92;4.03;;;;;;;10.20;100.00;101732.09;5036664;28;20031;-37
2022/11/10 03:42:08;;;;;;;45.85;5.00;;;;;;;10.23;100.00;101730.91;5043121;28;20029;-37
2022/11/10 03:44:33;;;;;;;25.60;3.08;;;;;;;10.25;100.00;101729.75;5029927;28;20064;-37
2022/11/10 03:46:59;;;;;;;43.58;4.78;;;;;;;10.26;100.00;101736.81;5048002;28;20033;-37
2022/11/10 03:49:24;;;;;;;30.70;3.55;;;;;;;10.25;100.00;101740.53;5040361;28;20434;-37
2022/11/10 03:51:49;;;;;;;30.27;2.45;;;;;;;10.22;100.00;101742.69;5044027;28;20044;-37
2022/11/10 03:54:15;;;;;;;36.45;3.60;;;;;;;10.18;100.00;101747.53;5038821;28;20087;-39
2022/11/10 03:56:40;;;;;;;41.25;4.05;;;;;;;10.11;100.00;101750.03;5031574;28;20021;-37
2022/11/10 03:59:05;;;;;;;40.97;3.70;;;;;;;10.09;100.00;101751.19;5036572;28;20359;-38
2022/11/10 04:01:31;;;;;;;32.55;3.17;;;;;;;10.04;100.00;101753.50;5034655;28;20116;-40
2022/11/10 04:03:56;;;;;;;34.50;3.95;;;;;;;9.99;100.00;101763.88;5028420;28;20061;-38
2022/11/10 04:09:07;;;;;;;36.28;3.58;;;;;;;9.94;100.00;101779.63;5034054;28;20099;-37
2022/11/10 04:17:00;;;;;;;35.85;3.17;;;;;;;9.88;100.00;101776.53;5046251;28;20102;-36
2022/11/10 04:19:26;;;;;;;31.00;3.47;;;;;;;9.87;100.00;101776.69;5019334;28;20112;-37
2022/11/10 04:21:53;;;;;;;48.05;4.03;;;;;;;9.86;100.00;101775.84;5031030;28;20021;-37
2022/11/10 04:24:18;;;;;;;45.30;3.75;;;;;;;9.84;100.00;101780.53;5030850;28;20048;-37
2022/11/10 04:26:46;;;;;;;31.42;3.60;;;;;;;9.84;100.00;101783.22;5030794;28;20432;-37
2022/11/10 04:29:12;;;;;;;31.55;3.67;;;;;;;9.81;100.00;101791.59;5041352;28;20238;-36
2022/11/10 04:31:39;;;;;;;30.77;3.13;;;;;;;9.81;100.00;101796.97;5047367;28;20052;-37
2022/11/10 04:34:07;;;;;;;46.60;4.47;;;;;;;9.83;100.00;101800.38;5052312;28;20079;-37
2022/11/10 04:36:34;;;;;;;35.88;4.10;;;;;;;9.80;100.00;101806.06;5035155;28;20060;-37
2022/11/10 04:39:00;;;;;;;38.58;4.32;;;;;;;9.78;100.00;101815.25;5034616;28;20029;-37
2022/11/10 04:41:28;;;;;;;35.17;3.10;;;;;;;9.74;100.00;101812.03;5039998;28;20033;-35
2022/11/10 04:43:54;;;;;;;34.42;3.78;;;;;;;9.77;100.00;101814.44;5041002;28;20035;-37
2022/11/10 04:46:28;;;;;;;30.58;4.00;;;;;;;9.77;100.00;101808.19;5050659;28;20025;-38
2022/11/10 04:48:54;;;;;;;30.77;4.07;;;;;;;9.77;100.00;101822.50;5049975;28;20029;-37
2022/11/10 04:51:21;;;;;;;37.33;5.32;;;;;;;9.79;100.00;101820.47;5042349;28;20071;-38
2022/11/10 04:53:47;;;;;;;38.22;3.10;;;;;;;9.76;100.00;101831.53;5035677;28;20356;-36
2022/11/10 04:56:16;;;;;;;33.67;3.90;;;;;;;9.74;100.00;101827.31;5033510;28;20518;-36
2022/11/10 04:58:42;;;;;;;22.65;4.80;;;;;;;9.74;100.00;101827.31;5041934;28;20063;-37
2022/11/10 05:01:15;;;;;;;34.60;3.90;;;;;;;9.70;100.00;101821.41;5037852;28;20393;-36
2022/11/10 05:03:41;;;;;;;31.27;4.68;;;;;;;9.68;100.00;101818.00;5039744;28;20530;-36
2022/11/10 05:06:08;;;;;;;52.33;4.15;;;;;;;9.66;100.00;101831.63;5052309;28;20113;-36
2022/11/10 05:08:34;;;;;;;39.17;4.55;;;;;;;9.64;100.00;101833.63;5045168;28;20112;-35
2022/11/10 05:11:00;;;;;;;34.58;4.40;;;;;;;9.66;100.00;101825.38;5049855;28;20509;-37
2022/11/10 05:13:25;;;;;;;37.97;3.83;;;;;;;9.67;100.00;101824.41;5039781;28;20017;-37
2022/11/10 05:15:51;;;;;;;37.13;4.28;;;;;;;9.67;100.00;101849.44;5052771;28;20392;-36
2022/11/10 05:18:17;;;;;;;39.33;4.53;;;;;;;9.66;100.00;101838.81;5035296;28;20044;-36
2022/11/10 05:20:42;;;;;;;29.48;4.55;;;;;;;9.65;100.00;101837.13;5038894;28;20471;-37
2022/11/10 05:25:51;;;;;;;44.88;3.67;;;;;;;9.63;100.00;101852.56;5047074;28;20083;-37
2022/11/10 05:28:17;;;;;;;35.13;3.92;;;;;;;9.61;100.00;101849.19;5052374;28;20460;-36
2022/11/10 05:30:43;;;;;;;35.40;4.80;;;;;;;9.61;100.00;101854.53;5035528;28;20029;-37
2022/11/10 05:33:09;;;;;;;34.95;5.13;;;;;;;9.62;100.00;101851.72;5034304;28;20036;-36
2022/11/10 05:35:35;;;;;;;38.10;4.47;;;;;;;9.63;100.00;101864.16;5048912;28;20025;-36
2022/11/10 05:38:01;;;;;;;36.25;4.40;;;;;;;9.63;100.00;101860.63;5034252;28;20030;-36
2022/11/10 05:40:26;;;;;;;39.90;4.25;;;;;;;9.62;100.00;101861.63;5023020;28;20083;-39
2022/11/10 05:42:52;;;;;;;28.42;4.45;;;;;;;9.61;100.00;101865.31;5022666;28;20403;-37
2022/11/10 05:45:19;;;;;;;40.95;4.97;;;;;;;9.59;100.00;101860.09;5041238;28;20556;-38
2022/11/10 05:47:44;;;;;;;38.30;4.95;;;;;;;9.61;100.00;101870.69;5030570;28;20062;-37
2022/11/10 05:50:10;;;;;;;31.52;4.18;;;;;;;9.63;100.00;101868.69;5038455;28;20033;-38
2022/11/10 05:52:41;;;;;;;43.42;4.70;;;;;;;9.63;100.00;101864.16;5043658;28;20187;-39
2022/11/10 05:55:07;;;;;;;30.23;5.05;;;;;;;9.64;100.00;101867.72;5035018;28;20025;-37
2022/11/10 05:57:33;;;;;;;36.15;4.82;;;;;;;9.65;100.00;101875.59;5046375;28;20051;-37
2022/11/10 05:59:58;;;;;;;39.47;4.38;;;;;;;9.67;100.00;101875.47;5049036;28;20112;-36
2022/11/10 06:02:23;;;;;;;39.20;4.80;;;;;;;9.69;100.00;101884.25;5051124;28;20097;-36
2022/11/10 06:04:49;;;;;;;31.15;4.15;;;;;;;9.71;100.00;101884.91;5037778;28;20314;-37
2022/11/10 06:07:14;;;;;;;38.58;4.43;;;;;;;9.71;100.00;101892.13;5033893;28;20492;-37
2022/11/10 06:09:40;;;;;;;39.17;4.68;;;;;;;9.74;100.00;101895.38;5045205;28;20508;-36
2022/11/10 06:12:06;;;;;;;35.58;4.30;;;;;;;9.72;100.00;101897.38;5050472;28;20477;-37
2022/11/10 06:14:31;;;;;;;45.28;6.30;;;;;;;9.73;100.00;101890.97;5051194;28;20115;-36
2022/11/10 06:16:56;;;;;;;47.17;4.70;;;;;;;9.73;100.00;101890.97;5050834;28;20029;-37
2022/11/10 06:19:22;;;;;;;43.60;5.53;;;;;;;9.72;100.00;101893.84;5049064;28;20029;-37
2022/11/10 06:21:47;;;;;;;35.40;6.38;;;;;;;9.72;100.00;101905.44;5051787;28;20025;-37
2022/11/10 06:24:12;;;;;;;47.90;4.32;;;;;;;9.70;100.00;101903.91;5034051;28;20459;-36
2022/11/10 06:26:38;;;;;;;29.13;4.22;;;;;;;9.67;100.00;101913.09;5032694;28;20027;-36
2022/11/10 06:29:03;;;;;;;50.47;5.40;;;;;;;9.66;100.00;101916.75;5028955;28;20042;-36
2022/11/10 06:31:28;;;;;;;30.15;5.20;;;;;;;9.63;100.00;101925.13;5045800;28;20028;-37
2022/11/10 06:33:54;;;;;;;40.78;6.22;;;;;;;9.61;100.00;101925.31;5042613;28;20387;-37
2022/11/10 06:36:20;;;;;;;28.80;4.63;;;;;;;9.60;100.00;101933.50;5041608;28;20033;-37
2022/11/10 06:38:45;;;;;;;28.17;4.38;;;;;;;9.58;100.00;101930.94;5037288;28;20053;-38
2022/11/10 06:41:10;;;;;;;31.85;3.58;;;;;;;9.59;100.00;101937.19;5032503;28;20549;-37
2022/11/10 06:43:36;;;;;;;36.88;4.78;;;;;;;9.59;100.00;101958.69;5045761;28;20032;-36
2022/11/10 06:46:01;;;;;;;32.25;5.07;;;;;;;9.58;100.00;101952.44;5052255;28;20088;-37
2022/11/10 06:48:26;;;;;;;26.65;3.70;;;;;;;9.57;100.00;101960.69;5050824;28;20021;-38
2022/11/10 06:50:52;;;;;;;31.48;4.78;;;;;;;9.56;100.00;101961.69;5029998;28;20041;-36
2022/11/10 06:53:17;;;;;;;33.80;4.68;;;;;;;9.57;100.00;101966.06;5032417;28;20134;-36
2022/11/10 06:55:43;;;;;;;31.73;4.97;;;;;;;9.58;100.00;101983.88;5044188;28;20041;-36
2022/11/10 06:58:08;;;;;;;37.50;4.28;;;;;;;9.59;100.00;101988.25;5046434;28;20068;-36
2022/11/10 07:00:34;;;;;;;31.50;4.88;;;;;;;9.59;100.00;101996.31;5044270;28;20494;-36
2022/11/10 07:02:59;;;;;;;26.08;4.82;;;;;;;9.60;100.00;101987.25;5047540;28;20029;-37
2022/11/10 07:05:24;;;;;;;34.17;4.43;;;;;;;9.62;100.00;101991.50;5048246;28;20427;-36
2022/11/10 07:07:50;;;;;;;37.08;4.78;;;;;;;9.63;100.00;101985.09;5051745;28;20027;-35
2022/11/10 07:10:15;;;;;;;32.70;4.45;;;;;;;9.67;100.00;101989.22;5038498;28;20474;-37
2022/11/10 07:12:41;;;;;;;40.58;6.32;;;;;;;9.67;100.00;101975.75;5047874;28;20037;-38
2022/11/10 07:15:07;;;;;;;40.30;7.30;;;;;;;9.70;100.00;101979.16;5034958;28;20033;-38
2022/11/10 07:17:38;;;;;;;30.52;4.60;;;;;;;9.71;100.00;101979.00;5050389;28;20422;-38
2022/11/10 07:20:04;;;;;;;38.60;4.97;;;;;;;9.74;100.00;101972.47;5048401;28;20415;-37
2022/11/10 07:22:29;;;;;;;34.63;4.13;;;;;;;9.79;100.00;101976.41;5051736;28;20056;-38
2022/11/10 07:24:55;;;;;;;38.30;3.95;;;;;;;9.80;100.00;101983.50;5049301;28;20126;-38
2022/11/10 07:27:22;;;;;;;35.95;4.75;;;;;;;9.84;100.00;101998.31;5034552;28;20033;-38
2022/11/10 07:29:47;;;;;;;34.17;4.93;;;;;;;9.89;100.00;101993.34;5039106;28;20056;-37
2022/11/10 07:32:13;;;;;;;29.33;3.83;;;;;;;9.98;100.00;101990.75;5041623;28;20100;-37
2022/11/10 07:34:39;;;;;;;27.90;4.22;;;;;;;10.00;100.00;101999.53;5045274;28;20468;-37
2022/11/10 07:37:04;;;;;;;38.20;4.25;;;;;;;10.04;100.00;102009.00;5040160;28;20056;-37
2022/11/10 07:39:30;;;;;;;25.15;4.25;;;;;;;10.14;100.00;102007.09;5046225;28;20020;-36
2022/11/10 07:41:56;;;;;;;36.50;4.38;;;;;;;10.22;100.00;102009.88;5039780;28;20029;-37
2022/11/10 07:44:22;;;;;;;33.90;4.85;;;;;;;10.41;100.00;102005.41;5049728;28;20035;-36
2022/11/10 07:46:47;;;;;;;36.22;4.53;;;;;;;10.44;100.00;101999.72;5043739;28;20033;-36
2022/11/10 07:49:13;;;;;;;35.40;3.75;;;;;;;10.65;100.00;101989.47;5038653;28;20057;-37
2022/11/10 07:51:38;;;;;;;46.72;4.43;;;;;;;10.87;100.00;101998.91;5037134;28;20389;-37
2022/11/10 07:54:03;;;;;;;37.65;4.07;;;;;;;11.07;100.00;101993.38;5054048;28;20025;-36
2022/11/10 07:56:30;;;;;;;29.02;3.50;;;;;;;11.16;100.00;102001.38;5049828;28;20052;-37
2022/11/10 07:58:55;;;;;;;34.38;3.42;;;;;;;11.49;100.00;101990.78;5049954;28;20025;-37
2022/11/10 08:01:21;;;;;;;30.02;3.70;;;;;;;11.75;100.00;101988.06;5051836;28;20112;-36
2022/11/10 08:03:46;;;;;;;23.67;2.95;;;;;;;11.95;100.00;101998.59;5052202;28;20449;-37
2022/11/10 08:06:11;;;;;;;26.13;3.88;;;;;;;12.15;100.00;102001.91;5046860;28;20033;-37
2022/11/10 08:08:37;;;;;;;36.45;4.22;;;;;;;12.25;100.00;102010.69;5059548;28;20039;-37
2022/11/10 08:11:02;;;;;;;26.50;3.10;;;;;;;12.28;100.00;102000.41;5056629;28;20556;-38
2022/11/10 08:13:27;;;;;;;21.75;3.25;;;;;;;11.76;100.00;102003.22;5043855;28;20036;-38
2022/11/10 08:15:53;;;;;;;23.52;3.63;;;;;;;11.58;100.00;102018.63;5078669;28;20051;-38
2022/11/10 08:18:21;;;;;;;33.33;3.78;;;;;;;11.44;100.00;102028.16;5075365;28;20088;-37
2022/11/10 08:20:48;;;;;;;34.40;4.70;;;;;;;11.38;100.00;102039.56;5057675;28;20031;-35
2022/11/10 08:23:15;;;;;;;24.88;3.50;;;;;;;11.28;100.00;102028.88;5054944;28;20032;-37
2022/11/10 08:25:41;;;;;;;32.85;4.40;;;;;;;11.27;100.00;102039.81;5038968;28;20064;-37
2022/11/10 08:28:10;;;;;;;32.45;3.22;;;;;;;11.16;100.00;102039.09;5049058;28;20048;-36
2022/11/10 08:30:37;;;;;;;31.95;3.85;;;;;;;11.20;100.00;102050.38;5036554;28;20029;-37
2022/11/10 08:33:04;;;;;;;34.78;4.15;;;;;;;11.19;100.00;102046.84;5026908;28;20017;-36
2022/11/10 08:35:31;;;;;;;33.15;3.70;;;;;;;11.30;100.00;102048.44;5029302;28;20041;-36
2022/11/10 08:37:57;;;;;;;31.67;5.20;;;;;;;11.40;100.00;102043.81;5039247;28;20030;-36
2022/11/10 08:40:26;;;;;;;30.13;3.38;;;;;;;11.55;100.00;102046.75;5043642;28;20033;-36
2022/11/10 08:42:58;;;;;;;38.75;3.90;;;;;;;11.90;100.00;102036.88;5048150;28;20079;-37
2022/11/10 08:45:24;;;;;;;24.00;3.70;;;;;;;12.39;100.00;102038.91;5046774;28;20620;-35
2022/11/10 08:47:57;;;;;;;28.45;4.00;;;;;;;12.75;100.00;102034.09;5041559;28;20025;-42
2022/11/10 08:50:22;;;;;;;18.63;3.10;;;;;;;13.05;100.00;102045.25;5039409;28;20029;-42
2022/11/10 08:52:48;;;;;;;19.60;3.13;;;;;;;13.17;100.00;102038.50;5052505;28;20362;-42
2022/11/10 08:55:13;;;;;;;23.50;3.58;;;;;;;13.02;100.00;102053.69;5063678;28;20029;-43
2022/11/10 08:57:39;;;;;;;34.63;3.80;;;;;;;12.79;100.00;102035.44;5035514;28;20322;-42
2022/11/10 09:00:05;;;;;;;26.00;4.97;;;;;;;12.77;100.00;102032.06;5032927;28;20559;-42
2022/11/10 09:02:30;;;;;;;30.27;3.88;;;;;;;13.10;100.00;102041.00;5032756;28;20087;-42
2022/11/10 09:04:57;;;;;;;19.30;3.53;;;;;;;12.92;100.00;102032.22;5032812;28;20612;-43
2022/11/10 09:07:23;;;;;;;25.52;3.47;;;;;;;12.97;100.00;102037.97;5032614;28;20107;-43
2022/11/10 09:09:48;;;;;;;24.90;3.75;;;;;;;13.34;100.00;102036.63;5032709;28;20025;-42
2022/11/10 09:12:14;;;;;;;15.90;2.80;;;;;;;13.31;100.00;102040.53;5014507;28;20049;-43
2022/11/10 09:14:39;;;;;;;30.85;3.72;;;;;;;13.46;100.00;102037.16;5031544;28;20021;-42
2022/11/10 09:17:06;;;;;;;20.60;3.63;;;;;;;13.40;100.00;102044.06;5014864;28;20606;-42
2022/11/10 09:19:31;;;;;;;17.88;2.95;;;;;;;13.39;100.00;102050.50;5031218;28;20096;-43
2022/11/10 09:21:57;;;;;;;23.10;3.28;;;;;;;13.26;100.00;102048.31;5014680;28;20429;-43
2022/11/10 09:24:23;;;;;;;31.73;3.40;;;;;;;13.37;100.00;102050.66;5031098;28;20543;-43
2022/11/10 09:26:49;;;;;;;29.52;3.72;;;;;;;13.44;100.00;102066.22;5032510;28;20033;-43
2022/11/10 09:29:14;;;;;;;28.13;3.70;;;;;;;13.47;100.00;102065.88;5032675;28;20492;-44
2022/11/10 09:31:42;;;;;;;23.38;3.67;;;;;;;13.43;100.00;102067.22;5032277;28;20025;-43
2022/11/10 09:34:08;;;;;;;22.30;3.42;;;;;;;13.40;100.00;102071.09;5041060;28;20029;-43
2022/11/10 09:36:34;;;;;;;22.33;3.15;;;;;;;13.38;100.00;102063.19;5052330;28;20029;-43
2022/11/10 09:38:59;;;;;;;30.00;3.70;;;;;;;13.40;100.00;102065.69;5052251;28;20048;-43
2022/11/10 09:41:28;;;;;;;23.13;4.07;;;;;;;13.51;100.00;102076.19;5050794;28;20394;-43
2022/11/10 09:44:02;;;;;;;23.15;2.60;;;;;;;13.76;100.00;102068.84;5052453;28;20017;-43
2022/11/10 09:46:33;;;;;;;30.42;4.10;;;;;;;14.04;100.00;102074.69;5029538;28;20084;-43
2022/11/10 09:49:04;;;;;;;29.67;3.95;;;;;;;14.07;100.00;102088.91;5024316;28;20072;-42
2022/11/10 09:51:38;;;;;;;38.42;3.67;;;;;;;14.09;100.00;102098.53;5014190;28;20417;-44
2022/11/10 09:54:26;;;;;;;25.17;3.25;;;;;;;13.77;100.00;102115.69;5047092;28;20061;-43
2022/11/10 09:56:55;;;;;;;28.23;3.75;;;;;;;13.74;100.00;102119.56;5032124;28;20092;-43
2022/11/10 09:59:31;;;;;;;31.15;3.55;;;;;;;13.75;100.00;102137.53;5030428;28;20032;-43
2022/11/10 10:02:16;;;;;;;26.00;3.50;;;;;;;13.83;100.00;102140.22;5031715;28;20480;-44
2022/11/10 10:04:41;;;;;;;29.95;3.38;;;;;;;13.65;100.00;102160.34;5050702;28;20041;-44
2022/11/10 10:07:17;;;;;;;20.23;3.70;;;;;;;13.40;100.00;102152.22;5051516;28;20082;-43
2022/11/10 10:09:53;;;;;;;20.95;3.60;;;;;;;13.47;100.00;102160.53;5050480;28;20087;-44
2022/11/10 10:12:31;;;;;;;30.63;4.05;;;;;;;13.50;100.00;102155.63;5050120;28;20057;-44
2022/11/10 10:15:18;;;;;;;30.33;4.10;;;;;;;13.49;100.00;102161.22;5050616;28;20029;-43
2022/11/10 10:18:05;;;;;;;31.88;3.58;;;;;;;13.48;100.00;102154.09;5043487;28;20029;-42
2022/11/10 10:20:49;;;;;;;24.40;3.50;;;;;;;13.44;100.00;102147.34;5032596;28;20028;-43
2022/11/10 10:23:32;;;;;;;18.27;3.33;;;;;;;13.59;100.00;102153.78;5041610;28;20041;-43
2022/11/10 10:25:57;;;;;;;25.00;3.03;;;;;;;13.66;100.00;102156.63;5043122;28;20165;-43
2022/11/10 10:28:27;;;;;;;23.02;3.33;;;;;;;13.61;100.00;102159.84;5049026;28;20036;-43
2022/11/10 10:30:58;;;;;;;24.30;3.30;;;;;;;13.60;100.00;102159.00;5039813;28;20084;-43
2022/11/10 10:33:24;;;;;;;17.30;2.88;;;;;;;13.77;100.00;102158.97;5029761;28;20482;-42
2022/11/10 10:35:49;;;;;;;23.65;3.47;;;;;;;13.80;100.00;102166.78;5022713;28;20026;-43
2022/11/10 10:38:31;;;;;;;24.38;3.40;;;;;;;13.82;100.00;102173.72;5030648;28;20179;-43
2022/11/10 10:40:59;;;;;;;19.35;4.05;;;;;;;13.87;100.00;102169.63;5039553;28;20497;-43
2022/11/10 10:43:25;;;;;;;26.95;5.05;;;;;;;13.87;100.00;102169.63;5031129;28;20418;-43
2022/11/10 10:46:08;;;;;;;33.03;4.93;;;;;;;13.63;100.00;102171.34;5028802;28;20043;-43
2022/11/10 10:48:33;;;;;;;29.05;5.30;;;;;;;13.72;100.00;102174.91;5029652;28;20099;-43
2022/11/10 10:50:59;;;;;;;22.02;3.50;;;;;;;13.82;100.00;102179.13;5035645;28;20527;-43
2022/11/10 10:53:24;;;;;;;19.08;3.35;;;;;;;13.75;100.00;102175.41;5033399;28;20052;-45
2022/11/10 10:55:59;;;;;;;25.15;4.03;;;;;;;13.74;100.00;102183.66;5029339;28;20033;-43
2022/11/10 10:58:35;;;;;;;27.13;3.00;;;;;;;13.67;100.00;102175.41;5043458;28;20037;-43
2022/11/10 11:01:14;;;;;;;19.33;3.00;;;;;;;13.69;100.00;102186.91;5039887;28;20447;-43
2022/11/10 11:03:45;;;;;;;29.15;3.67;;;;;;;13.72;100.00;102204.66;5034162;28;20041;-43
2022/11/10 11:06:21;;;;;;;20.65;3.03;;;;;;;13.63;100.00;102189.44;5030444;28;20152;-43
2022/11/10 11:08:59;;;;;;;16.05;3.20;;;;;;;13.65;100.00;102204.47;5030450;28;20451;-44
2022/11/10 11:11:37;;;;;;;19.50;2.88;;;;;;;13.72;100.00;102210.91;5012556;28;20121;-43
2022/11/10 11:14:18;;;;;;;35.08;3.08;;;;;;;13.72;100.00;102205.50;5031845;28;20036;-44
2022/11/10 11:16:52;;;;;;;21.38;2.90;;;;;;;13.70;100.00;102223.75;5044964;28;20364;-43
2022/11/10 11:19:20;;;;;;;22.95;2.95;;;;;;;13.69;100.00;102213.97;5041029;28;20116;-44
2022/11/10 11:22:10;;;;;;;18.52;2.92;;;;;;;13.61;100.00;102213.94;5023423;28;20452;-42
2022/11/10 11:24:42;;;;;;;24.70;3.97;;;;;;;13.70;100.00;102225.63;5036389;28;20033;-42
2022/11/10 11:27:20;;;;;;;25.45;3.13;;;;;;;13.70;100.00;102223.75;5030937;28;20525;-42